createdAt,value
2019-01-17T00:01:28.080Z,6.07
2019-01-17T00:06:04.972Z,9.80
2019-01-17T00:10:36.024Z,8.70
2019-01-17T00:15:05.744Z,10.77
2019-01-17T00:19:36.592Z,9.67
2019-01-17T00:24:04.504Z,17.60
2019-01-17T00:28:34.938Z,7.43
2019-01-17T00:33:24.800Z,8.50
2019-01-17T00:38:02.408Z,11.60
2019-01-17T00:42:39.397Z,8.73
2019-01-17T00:47:02.976Z,11.73
2019-01-17T00:51:37.407Z,8.50
2019-01-17T00:56:17.572Z,6.97
2019-01-17T01:00:58.557Z,10.77
2019-01-17T01:05:29.509Z,10.53
2019-01-17T01:10:03.837Z,7.67
2019-01-17T01:14:40.624Z,10.60
2019-01-17T01:19:14.441Z,13.87
2019-01-17T01:23:49.507Z,11.83
2019-01-17T01:28:29.447Z,12.47
2019-01-17T01:33:02.586Z,12.70
2019-01-17T01:37:43.330Z,14.83
2019-01-17T01:42:03.250Z,5.97
2019-01-17T01:46:40.519Z,9.43
2019-01-17T01:51:17.715Z,10.30
2019-01-17T01:55:30.271Z,10.87
2019-01-17T01:59:42.622Z,8.90
2019-01-17T02:03:55.053Z,10.20
2019-01-17T02:08:07.222Z,9.70
2019-01-17T02:12:19.832Z,7.70
2019-01-17T02:16:32.284Z,9.53
2019-01-17T02:20:44.491Z,7.63
2019-01-17T02:24:56.687Z,4.73
2019-01-17T02:29:08.896Z,7.20
2019-01-17T02:33:21.607Z,10.03
2019-01-17T02:37:34.120Z,12.60
2019-01-17T02:41:46.374Z,7.13
2019-01-17T02:45:58.573Z,7.60
2019-01-17T02:50:11.925Z,8.00
2019-01-17T02:54:24.111Z,5.40
2019-01-17T02:58:36.116Z,7.00
2019-01-17T03:02:48.720Z,5.23
2019-01-17T03:07:01.352Z,9.47
2019-01-17T03:11:13.686Z,9.63
2019-01-17T03:15:25.782Z,6.80
2019-01-17T03:19:37.909Z,8.73
2019-01-17T03:23:50.203Z,10.73
2019-01-17T03:28:02.795Z,8.40
2019-01-17T03:32:16.449Z,8.50
2019-01-17T03:36:28.897Z,5.57
2019-01-17T03:40:41.176Z,6.03
2019-01-17T03:44:53.324Z,4.77
2019-01-17T03:49:05.569Z,8.50
2019-01-17T03:53:18.331Z,8.23
2019-01-17T03:57:30.772Z,5.63
2019-01-17T04:01:42.978Z,5.67
2019-01-17T04:05:55.175Z,7.33
2019-01-17T04:10:08.979Z,4.77
2019-01-17T04:14:21.635Z,7.50
2019-01-17T04:18:33.987Z,8.23
2019-01-17T04:22:46.275Z,5.83
2019-01-17T04:26:58.476Z,6.93
2019-01-17T04:31:11.201Z,6.03
2019-01-17T04:35:23.631Z,6.23
2019-01-17T04:39:36.033Z,6.27
2019-01-17T04:43:48.310Z,6.00
2019-01-17T04:48:00.946Z,8.13
2019-01-17T04:52:14.586Z,8.20
2019-01-17T04:56:27.055Z,5.80
2019-01-17T05:00:39.236Z,7.40
2019-01-17T05:04:51.551Z,7.00
2019-01-17T05:09:05.625Z,4.80
2019-01-17T05:13:18.126Z,5.63
2019-01-17T05:17:30.351Z,4.33
2019-01-17T05:21:43.143Z,6.77
2019-01-17T05:25:55.591Z,5.63
2019-01-17T05:30:09.897Z,6.40
2019-01-17T05:34:22.634Z,6.33
2019-01-17T05:38:35.002Z,6.10
2019-01-17T05:42:47.112Z,6.97
2019-01-17T05:46:59.362Z,5.03
2019-01-17T05:51:11.661Z,10.33
2019-01-17T05:55:24.314Z,5.93
2019-01-17T05:59:36.824Z,4.30
2019-01-17T06:03:49.062Z,4.97
2019-01-17T06:08:01.165Z,6.77
2019-01-17T06:12:13.867Z,5.27
2019-01-17T06:16:26.491Z,6.80
2019-01-17T06:20:38.628Z,7.90
2019-01-17T06:24:50.830Z,10.53
2019-01-17T06:29:03.043Z,6.10
2019-01-17T06:33:15.742Z,6.03
2019-01-17T06:37:28.195Z,6.30
2019-01-17T06:41:40.299Z,5.83
2019-01-17T06:45:52.503Z,5.10
2019-01-17T06:50:04.905Z,4.70
2019-01-17T06:54:17.522Z,5.83
2019-01-17T06:58:29.972Z,4.90
2019-01-17T07:02:42.146Z,5.17
2019-01-17T07:06:54.369Z,6.30
2019-01-17T07:11:07.070Z,6.53
2019-01-17T07:15:19.638Z,3.70
2019-01-17T07:19:32.475Z,6.70
2019-01-17T07:23:44.880Z,7.13
2019-01-17T07:27:57.177Z,7.60
2019-01-17T07:32:09.371Z,5.93
2019-01-17T07:36:21.585Z,5.93
2019-01-17T07:40:34.454Z,3.07
2019-01-17T07:44:46.739Z,6.80
2019-01-17T07:48:59.031Z,6.30
2019-01-17T07:53:11.242Z,6.60
2019-01-17T07:57:23.750Z,5.50
2019-01-17T08:01:36.253Z,7.57
2019-01-17T08:05:48.619Z,5.10
2019-01-17T08:10:00.814Z,5.97
2019-01-17T08:14:13.016Z,5.63
2019-01-17T08:18:25.715Z,4.87
2019-01-17T08:22:38.136Z,7.13
2019-01-17T08:26:50.495Z,5.97
2019-01-17T08:31:02.687Z,5.57
2019-01-17T08:35:15.625Z,6.47
2019-01-17T08:39:27.943Z,5.27
2019-01-17T08:43:40.243Z,5.40
2019-01-17T08:47:52.440Z,5.50
2019-01-17T08:52:05.127Z,6.67
2019-01-17T08:56:17.614Z,6.37
2019-01-17T09:00:29.907Z,8.87
2019-01-17T09:04:42.107Z,7.07
2019-01-17T09:08:54.944Z,6.80
2019-01-17T09:13:07.253Z,7.50
2019-01-17T09:17:19.463Z,7.00
2019-01-17T09:21:32.055Z,9.13
2019-01-17T09:25:44.628Z,4.57
2019-01-17T09:29:56.933Z,5.80
2019-01-17T09:34:09.219Z,6.93
2019-01-17T09:38:21.325Z,5.83
2019-01-17T09:42:34.031Z,7.67
2019-01-17T09:46:46.450Z,8.97
2019-01-17T09:50:58.707Z,10.37
2019-01-17T09:55:11.169Z,6.00
2019-01-17T09:59:23.793Z,11.77
2019-01-17T10:03:36.256Z,8.73
2019-01-17T10:07:48.653Z,11.47
2019-01-17T10:12:01.359Z,7.90
2019-01-17T10:16:31.283Z,13.17
2019-01-17T10:21:25.654Z,12.47
2019-01-17T10:26:05.907Z,12.03
2019-01-17T10:31:19.987Z,8.93
2019-01-17T10:35:48.714Z,11.63
2019-01-17T10:40:47.621Z,10.07
2019-01-17T10:45:31.559Z,9.97
2019-01-17T10:50:16.544Z,8.47
2019-01-17T10:55:04.978Z,5.87
2019-01-17T10:59:44.227Z,3.30
2019-01-17T11:04:48.859Z,4.00
2019-01-17T11:09:32.088Z,7.83
2019-01-17T11:14:47.832Z,3.63
2019-01-17T11:19:25.811Z,7.13
2019-01-17T11:24:17.469Z,7.07
2019-01-17T11:29:10.475Z,3.87
2019-01-17T11:33:50.689Z,7.20
2019-01-17T11:38:21.531Z,6.47
2019-01-17T11:43:22.471Z,4.70
2019-01-17T11:48:05.336Z,7.57
2019-01-17T11:52:39.633Z,4.83
2019-01-17T11:57:30.279Z,7.87
2019-01-17T12:02:20.063Z,6.53
2019-01-17T12:06:32.414Z,6.97
2019-01-17T12:10:44.634Z,5.67
2019-01-17T12:14:59.751Z,3.13
2019-01-17T12:19:11.998Z,8.27
2019-01-17T12:23:24.607Z,5.53
2019-01-17T12:27:42.521Z,6.50
2019-01-17T12:31:50.955Z,6.83
2019-01-17T12:36:03.206Z,5.03
2019-01-17T12:40:16.586Z,4.37
2019-01-17T12:44:28.744Z,3.43
2019-01-17T12:48:41.550Z,3.43
2019-01-17T12:52:54.438Z,2.80
2019-01-17T12:57:06.731Z,3.90
2019-01-17T13:01:19.383Z,3.83
2019-01-17T13:05:31.672Z,4.07
2019-01-17T13:09:43.883Z,4.63
2019-01-17T13:13:55.891Z,3.50
2019-01-17T13:18:07.982Z,3.30
2019-01-17T13:22:20.682Z,5.23
2019-01-17T13:26:33.142Z,4.87
2019-01-17T13:30:45.442Z,4.67
2019-01-17T13:34:57.695Z,6.27
2019-01-17T13:39:11.199Z,6.17
2019-01-17T13:43:23.852Z,3.10
2019-01-17T13:47:36.333Z,5.57
2019-01-17T13:51:48.726Z,2.27
2019-01-17T13:56:01.523Z,4.90
2019-01-17T14:00:22.359Z,5.77
2019-01-17T14:04:34.938Z,6.47
2019-01-17T14:08:47.458Z,3.60
2019-01-17T14:12:59.727Z,1.77
2019-01-17T14:17:11.970Z,2.13
2019-01-17T14:21:25.532Z,2.27
2019-01-17T14:25:38.490Z,3.77
2019-01-17T14:29:52.131Z,3.70
2019-01-17T14:34:04.882Z,4.87
2019-01-17T14:38:17.178Z,4.47
2019-01-17T14:42:29.778Z,4.20
2019-01-17T14:46:42.243Z,2.40
2019-01-17T14:50:54.542Z,2.70
2019-01-17T14:55:07.391Z,4.53
2019-01-17T14:59:19.790Z,6.87
2019-01-17T15:03:32.004Z,3.53
2019-01-17T15:07:44.156Z,7.23
2019-01-17T15:11:56.899Z,5.13
2019-01-17T15:16:09.352Z,7.27
2019-01-17T15:20:22.243Z,4.57
2019-01-17T15:24:34.846Z,4.87
2019-01-17T15:28:47.318Z,4.53
2019-01-17T15:32:59.513Z,5.97
2019-01-17T15:37:11.782Z,7.33
2019-01-17T15:41:28.647Z,5.17
2019-01-17T15:45:40.243Z,11.27
2019-01-17T15:49:54.523Z,7.53
2019-01-17T15:54:07.335Z,8.97
2019-01-17T15:58:19.707Z,6.83
2019-01-17T16:02:32.332Z,9.57
2019-01-17T16:06:44.794Z,8.20
2019-01-17T16:10:58.247Z,14.17
2019-01-17T16:15:13.617Z,14.13
2019-01-17T16:19:25.902Z,13.97
2019-01-17T16:23:38.011Z,9.77
2019-01-17T16:27:53.282Z,12.00
2019-01-17T16:32:04.807Z,11.87
2019-01-17T16:36:16.998Z,14.83
2019-01-17T16:40:29.400Z,12.90
2019-01-17T16:44:42.018Z,11.90
2019-01-17T16:48:54.470Z,7.80
2019-01-17T16:53:06.869Z,11.57
2019-01-17T16:57:19.912Z,10.30
2019-01-17T17:01:32.239Z,13.63
2019-01-17T17:05:44.312Z,14.70
2019-01-17T17:09:57.025Z,19.27
2019-01-17T17:14:09.600Z,19.47
2019-01-17T17:18:21.891Z,16.17
2019-01-17T17:22:33.988Z,19.93
2019-01-17T17:26:46.187Z,18.17
2019-01-17T17:30:58.902Z,20.67
2019-01-17T17:35:11.355Z,38.83
2019-01-17T17:39:23.664Z,34.23
2019-01-17T17:43:35.835Z,29.63
2019-01-17T17:47:48.333Z,18.77
2019-01-17T17:52:00.870Z,16.40
2019-01-17T17:56:14.710Z,9.90
2019-01-17T18:00:33.398Z,15.50
2019-01-17T18:04:45.723Z,10.70
2019-01-17T18:08:58.319Z,12.07
2019-01-17T18:13:10.782Z,10.80
2019-01-17T18:17:23.140Z,10.00
2019-01-17T18:21:35.758Z,13.43
2019-01-17T18:25:48.181Z,12.67
2019-01-17T18:30:00.670Z,11.43
2019-01-17T18:34:12.944Z,12.27
2019-01-17T18:38:25.163Z,9.97
2019-01-17T18:42:37.851Z,10.90
2019-01-17T18:46:50.391Z,11.23
2019-01-17T18:51:02.616Z,12.03
2019-01-17T18:55:14.806Z,14.00
2019-01-17T18:59:27.042Z,15.97
2019-01-17T19:03:39.717Z,14.87
2019-01-17T19:07:52.176Z,15.90
2019-01-17T19:12:04.490Z,10.97
2019-01-17T19:16:16.586Z,9.93
2019-01-17T19:20:28.860Z,11.50
2019-01-17T19:24:41.108Z,12.00
2019-01-17T19:28:53.314Z,16.57
2019-01-17T19:33:06.230Z,20.13
2019-01-17T19:37:18.581Z,19.47
2019-01-17T19:41:31.361Z,19.30
2019-01-17T19:45:43.914Z,20.43
2019-01-17T19:49:56.273Z,19.70
2019-01-17T19:54:08.518Z,19.03
2019-01-17T19:58:21.514Z,23.00
2019-01-17T20:02:33.879Z,43.77
2019-01-17T20:06:46.100Z,36.37
2019-01-17T20:11:00.019Z,28.63
2019-01-17T20:15:12.858Z,21.33
2019-01-17T20:19:25.195Z,26.03
2019-01-17T20:23:37.624Z,22.97
2019-01-17T20:27:50.295Z,20.77
2019-01-17T20:32:02.741Z,21.23
2019-01-17T20:36:14.942Z,19.53
2019-01-17T20:40:27.552Z,20.33
2019-01-17T20:44:40.923Z,22.10
2019-01-17T20:48:53.486Z,18.53
2019-01-17T20:53:05.979Z,20.80
2019-01-17T20:57:18.924Z,20.00
2019-01-17T21:01:58.426Z,25.40
2019-01-17T21:06:10.928Z,19.10
2019-01-17T21:10:23.358Z,21.00
2019-01-17T21:14:35.566Z,21.33
2019-01-17T21:18:47.759Z,16.17
2019-01-17T21:23:00.474Z,20.57
2019-01-17T21:27:13.088Z,24.33
2019-01-17T21:31:25.305Z,21.87
2019-01-17T21:35:37.526Z,13.93
2019-01-17T21:39:50.132Z,19.70
2019-01-17T21:44:02.547Z,22.20
2019-01-17T21:48:14.992Z,20.23
2019-01-17T21:52:27.107Z,13.10
2019-01-17T21:56:39.380Z,12.47
2019-01-17T22:00:52.229Z,14.93
2019-01-17T22:05:04.723Z,13.20
2019-01-17T22:09:17.051Z,13.83
2019-01-17T22:13:29.756Z,15.63
2019-01-17T22:17:42.111Z,14.37
2019-01-17T22:21:54.422Z,14.90
2019-01-17T22:26:06.710Z,17.17
2019-01-17T22:30:22.192Z,13.00
2019-01-17T22:34:34.695Z,15.70
2019-01-17T22:38:49.239Z,14.70
2019-01-17T22:43:01.785Z,17.27
2019-01-17T22:47:14.242Z,12.17
2019-01-17T22:51:26.420Z,12.73
2019-01-17T22:55:38.641Z,10.63
2019-01-17T22:59:51.114Z,9.33
2019-01-17T23:04:06.221Z,9.67
2019-01-17T23:08:18.740Z,13.43
2019-01-17T23:12:32.384Z,10.10
2019-01-17T23:16:44.937Z,12.60
2019-01-17T23:20:57.260Z,12.40
2019-01-17T23:25:09.539Z,10.77
2019-01-17T23:29:22.251Z,10.93
2019-01-17T23:33:34.767Z,11.87
2019-01-17T23:37:47.109Z,13.90
2019-01-17T23:41:59.305Z,11.40
2019-01-17T23:46:12.014Z,13.63
2019-01-17T23:50:24.478Z,12.10
2019-01-17T23:54:36.766Z,14.33
2019-01-17T23:58:49.303Z,10.50
